Time;durP1;ratioP1;P1;durP2;ratioP2;P2;SDS_P1;SDS_P2;PMS_P1;PMS_P2;Temp;Humidity;BMP_temperature;BMP_pressure;BME280_temperature;BME280_humidity;BME280_pressure;Samples;Min_cycle;Max_cycle;Signal;HPM_P1;HPM_P2
2022/05/13 00:00:26;;;;;;;2.80;1.30;;;17.40;80.50;;;;;;10349151;28;20668;-74
2022/05/13 00:05:29;;;;;;;4.63;1.90;;;17.30;81.20;;;;;;10348299;28;20239;-73
2022/05/13 00:10:31;;;;;;;6.40;1.57;;;17.30;82.10;;;;;;10330306;28;20229;-75
2022/05/13 00:15:31;;;;;;;4.70;1.50;;;17.20;83.00;;;;;;10339774;28;20229;-75
2022/05/13 00:20:32;;;;;;;4.23;1.33;;;17.10;83.40;;;;;;10352312;28;20738;-76
2022/05/13 00:25:36;;;;;;;2.40;1.40;;;17.10;84.10;;;;;;10348547;28;20224;-75
2022/05/13 00:30:42;;;;;;;5.10;1.80;;;17.00;85.00;;;;;;10348972;28;20522;-75
2022/05/13 00:35:43;;;;;;;4.93;1.50;;;17.00;85.90;;;;;;10352684;28;20232;-74
2022/05/13 00:40:46;;;;;;;3.77;1.73;;;17.00;86.10;;;;;;10356245;28;20229;-75
2022/05/13 00:45:49;;;;;;;4.67;1.40;;;17.00;86.50;;;;;;10350390;28;20237;-75
2022/05/13 00:50:50;;;;;;;3.50;1.50;;;16.90;87.30;;;;;;10361513;28;20366;-74
2022/05/13 00:55:52;;;;;;;5.37;1.83;;;16.80;88.10;;;;;;10373878;28;20640;-74
2022/05/13 01:00:52;;;;;;;3.40;1.57;;;16.70;89.50;;;;;;10370500;28;20657;-74
2022/05/13 01:05:57;;;;;;;3.13;1.33;;;16.60;90.60;;;;;;10374564;28;20229;-76
2022/05/13 01:11:02;;;;;;;4.27;1.60;;;16.40;91.60;;;;;;10330021;28;20252;-75
2022/05/13 01:16:03;;;;;;;5.73;1.63;;;16.30;92.70;;;;;;10363877;28;20240;-74
2022/05/13 01:21:07;;;;;;;2.70;1.73;;;16.20;93.50;;;;;;10363508;28;20235;-74
2022/05/13 01:26:12;;;;;;;3.73;1.67;;;16.10;94.40;;;;;;10363803;28;20316;-75
2022/05/13 01:31:20;;;;;;;4.37;1.87;;;15.90;95.80;;;;;;10356651;28;20744;-73
2022/05/13 01:36:21;;;;;;;4.60;1.77;;;15.80;96.80;;;;;;10373769;28;20270;-73
2022/05/13 01:41:22;;;;;;;5.17;1.60;;;15.70;98.20;;;;;;10349000;28;20259;-74
2022/05/13 01:46:25;;;;;;;3.97;1.77;;;15.60;99.00;;;;;;10364157;28;20671;-75
2022/05/13 01:51:25;;;;;;;2.20;1.40;;;15.60;99.90;;;;;;10364396;28;20238;-75
2022/05/13 01:56:26;;;;;;;3.00;1.50;;;15.60;99.90;;;;;;10355139;28;20236;-74
2022/05/13 02:01:27;;;;;;;3.40;1.50;;;15.50;99.90;;;;;;10361196;28;20241;-74
2022/05/13 02:06:28;;;;;;;6.27;1.67;;;15.30;99.90;;;;;;10362602;28;20225;-76
2022/05/13 02:11:31;;;;;;;3.37;1.70;;;15.30;99.90;;;;;;10353777;28;20232;-73
2022/05/13 02:16:32;;;;;;;5.40;1.70;;;15.20;99.90;;;;;;10345663;28;20343;-76
2022/05/13 02:21:33;;;;;;;6.27;1.53;;;15.20;99.90;;;;;;10348444;28;20308;-73
2022/05/13 02:26:34;;;;;;;3.00;1.77;;;15.10;99.90;;;;;;10365274;28;20832;-74
2022/05/13 02:31:34;;;;;;;3.23;1.60;;;15.00;99.90;;;;;;10368969;28;20224;-73
2022/05/13 02:36:35;;;;;;;2.63;1.60;;;14.90;99.90;;;;;;10363578;28;20237;-75
2022/05/13 02:41:37;;;;;;;5.93;1.80;;;14.90;99.90;;;;;;10367829;28;20641;-74
2022/05/13 02:46:39;;;;;;;3.83;1.67;;;14.80;99.90;;;;;;10355117;28;20226;-74
2022/05/13 02:51:40;;;;;;;2.40;1.40;;;14.70;99.90;;;;;;10350834;28;20225;-75
2022/05/13 02:56:41;;;;;;;5.40;2.23;;;14.60;99.90;;;;;;10358644;28;20229;-75
2022/05/13 03:01:41;;;;;;;3.17;1.70;;;14.50;99.90;;;;;;10345564;28;20306;-76
2022/05/13 03:06:42;;;;;;;8.00;4.10;;;14.40;99.90;;;;;;10356299;28;20230;-73
2022/05/13 03:11:43;;;;;;;5.07;2.07;;;14.40;99.90;;;;;;10345514;28;20231;-74
2022/05/13 03:16:44;;;;;;;9.47;2.23;;;14.30;99.90;;;;;;10368108;28;20324;-74
2022/05/13 03:21:45;;;;;;;6.20;2.13;;;14.20;99.90;;;;;;10356892;28;20299;-74
2022/05/13 03:26:52;;;;;;;4.87;2.40;;;14.20;99.90;;;;;;10358710;28;20301;-73
2022/05/13 03:31:54;;;;;;;4.87;1.83;;;14.10;99.90;;;;;;10361724;28;20278;-76
2022/05/13 03:36:54;;;;;;;5.43;2.30;;;14.10;99.90;;;;;;10337511;28;20234;-75
2022/05/13 03:41:55;;;;;;;5.20;2.07;;;14.10;99.90;;;;;;10353371;28;20219;-74
2022/05/13 03:46:55;;;;;;;3.87;2.27;;;14.10;99.90;;;;;;10342829;28;20872;-74
2022/05/13 03:51:58;;;;;;;5.23;2.00;;;14.10;99.90;;;;;;10345527;28;20311;-74
2022/05/13 03:56:58;;;;;;;6.47;2.50;;;14.10;99.90;;;;;;10341913;28;20226;-75
2022/05/13 04:01:59;;;;;;;5.37;2.17;;;14.20;99.90;;;;;;10362206;28;20217;-75
2022/05/13 04:17:39;;;;;;;5.10;2.10;;;14.20;99.90;;;;;;10357673;28;20225;-74
2022/05/13 04:22:40;;;;;;;3.70;2.40;;;14.20;99.90;;;;;;10364540;28;20219;-73
2022/05/13 04:27:41;;;;;;;6.00;2.13;;;14.20;99.90;;;;;;10352095;28;20338;-74
2022/05/13 04:32:42;;;;;;;5.63;2.30;;;14.30;99.90;;;;;;10355441;28;20976;-72
2022/05/13 04:37:43;;;;;;;7.10;2.57;;;14.50;99.90;;;;;;10357337;28;20228;-72
2022/05/13 04:42:52;;;;;;;4.77;2.30;;;14.60;99.90;;;;;;10362829;28;20228;-73
2022/05/13 04:48:18;;;;;;;4.03;2.23;;;14.90;99.90;;;;;;10352308;28;20224;-73
2022/05/13 04:53:25;;;;;;;5.70;2.07;;;15.10;99.90;;;;;;10329562;28;20635;-74
2022/05/13 04:58:27;;;;;;;5.07;2.20;;;15.30;99.90;;;;;;10332538;28;20636;-74
2022/05/13 05:03:29;;;;;;;8.07;2.40;;;15.60;99.90;;;;;;10357311;28;20226;-72
2022/05/13 05:08:30;;;;;;;8.17;2.50;;;16.10;99.90;;;;;;10355705;28;20229;-72
2022/05/13 05:13:39;;;;;;;6.60;2.13;;;16.60;99.90;;;;;;10360824;28;20242;-73
2022/05/13 05:18:40;;;;;;;9.60;3.20;;;17.50;99.90;;;;;;10363453;28;20706;-73
2022/05/13 05:23:43;;;;;;;6.60;1.97;;;18.00;99.90;;;;;;10354434;28;20224;-73
2022/05/13 05:28:44;;;;;;;5.77;2.03;;;18.20;99.90;;;;;;10350720;28;20216;-72
2022/05/13 05:33:45;;;;;;;5.63;1.90;;;18.00;99.90;;;;;;10346267;28;20220;-72
2022/05/13 05:38:45;;;;;;;8.43;2.47;;;17.80;99.90;;;;;;10366052;28;20223;-72
2022/05/13 05:43:46;;;;;;;8.40;2.60;;;18.00;99.90;;;;;;10365207;28;20683;-72
2022/05/13 05:48:46;;;;;;;4.97;1.87;;;18.30;99.90;;;;;;10366775;28;20363;-72
2022/05/13 05:59:09;;;;;;;9.97;2.37;;;20.30;99.70;;;;;;10365723;28;20225;-72
2022/05/13 06:04:10;;;;;;;7.63;2.33;;;22.80;89.60;;;;;;10351219;28;20209;-71
2022/05/13 06:09:10;;;;;;;4.67;1.70;;;25.30;75.00;;;;;;10361875;28;20236;-72
2022/05/13 06:14:11;;;;;;;5.63;2.13;;;26.20;63.00;;;;;;10364349;28;20225;-72
2022/05/13 06:19:12;;;;;;;4.30;1.80;;;24.80;61.40;;;;;;10355264;28;20322;-72
2022/05/13 06:24:13;;;;;;;4.93;2.13;;;23.10;66.80;;;;;;10344684;28;20218;-72
2022/05/13 06:29:19;;;;;;;5.33;2.30;;;21.70;72.70;;;;;;10360021;28;20594;-71
2022/05/13 06:34:22;;;;;;;6.57;2.17;;;20.60;76.90;;;;;;10357688;28;20852;-73
2022/05/13 06:39:22;;;;;;;5.90;1.73;;;20.40;78.80;;;;;;10342809;28;20270;-71
2022/05/13 06:44:23;;;;;;;8.83;1.93;;;20.60;78.30;;;;;;10344971;28;20213;-71
2022/05/13 06:49:23;;;;;;;5.53;2.13;;;21.50;75.60;;;;;;10358894;28;20221;-70
2022/05/13 06:54:24;;;;;;;9.97;2.37;;;24.60;66.70;;;;;;10353702;28;20283;-71
2022/05/13 06:59:24;;;;;;;9.00;2.10;;;28.40;55.80;;;;;;10355053;28;20226;-72
2022/05/13 07:04:25;;;;;;;5.30;2.07;;;30.70;47.90;;;;;;10356917;28;20209;-69
2022/05/13 07:09:26;;;;;;;5.03;1.63;;;31.40;42.50;;;;;;10357683;28;20217;-71
2022/05/13 07:14:27;;;;;;;8.63;2.00;;;32.10;39.60;;;;;;10355167;28;20236;-70
2022/05/13 07:19:28;;;;;;;8.23;1.90;;;31.00;39.90;;;;;;10353595;28;20236;-70
2022/05/13 07:24:28;;;;;;;7.83;2.73;;;28.90;43.20;;;;;;10348268;28;21237;-68
2022/05/13 07:29:30;;;;;;;5.07;2.37;;;28.80;44.70;;;;;;10351106;28;20725;-67
2022/05/13 07:34:30;;;;;;;6.17;2.33;;;30.40;41.60;;;;;;10355433;28;20301;-71
2022/05/13 07:44:50;;;;;;;8.10;1.87;;;32.90;37.70;;;;;;10362736;28;20217;-72
2022/05/13 07:49:51;;;;;;;7.37;2.37;;;34.20;36.20;;;;;;10342758;28;20704;-72
2022/05/13 07:54:52;;;;;;;5.13;1.70;;;34.60;34.10;;;;;;10354065;28;20218;-72
2022/05/13 08:05:22;;;;;;;4.00;1.73;;;35.00;32.70;;;;;;10353711;28;20248;-73
2022/05/13 08:10:23;;;;;;;6.87;1.70;;;34.80;32.40;;;;;;10362965;28;20731;-72
2022/05/13 08:15:24;;;;;;;5.90;2.00;;;35.50;30.90;;;;;;10339927;28;20280;-72
2022/05/13 08:20:27;;;;;;;6.80;2.00;;;35.30;31.80;;;;;;10361053;28;20225;-71
2022/05/13 08:25:28;;;;;;;7.97;1.90;;;36.40;30.50;;;;;;10351706;28;20217;-72
2022/05/13 08:30:28;;;;;;;6.00;1.57;;;35.80;30.20;;;;;;10352796;28;20224;-72
2022/05/13 08:35:29;;;;;;;8.27;1.60;;;36.10;30.30;;;;;;10354245;28;20213;-72
2022/05/13 08:40:49;;;;;;;5.80;1.60;;;35.60;30.60;;;;;;10364056;28;20225;-72
2022/05/13 08:46:27;;;;;;;4.90;1.53;;;35.20;30.00;;;;;;10360990;28;20227;-73
2022/05/13 08:51:47;;;;;;;3.80;1.23;;;36.20;29.40;;;;;;10350448;28;20228;-72
2022/05/13 08:56:50;;;;;;;6.13;1.70;;;35.50;29.70;;;;;;10329428;28;20221;-71
2022/05/13 09:02:14;;;;;;;8.50;1.80;;;33.60;30.60;;;;;;10341663;28;20237;-73
2022/05/13 09:07:18;;;;;;;8.03;1.73;;;32.50;32.50;;;;;;10356072;28;20229;-72
2022/05/13 09:12:31;;;;;;;6.57;1.97;;;33.50;32.10;;;;;;10354896;28;20213;-71
2022/05/13 09:17:39;;;;;;;14.23;2.20;;;34.10;30.00;;;;;;10364311;28;20244;-72
2022/05/13 09:22:44;;;;;;;4.83;2.07;;;34.10;30.40;;;;;;10362774;28;20692;-72
2022/05/13 09:27:56;;;;;;;5.97;1.67;;;33.20;30.00;;;;;;10371878;28;20213;-73
2022/05/13 09:32:56;;;;;;;4.33;1.40;;;33.70;30.00;;;;;;10363725;28;20283;-73
2022/05/13 09:37:57;;;;;;;4.30;1.53;;;35.10;28.90;;;;;;10368735;28;20221;-73
2022/05/13 09:42:58;;;;;;;5.83;1.20;;;35.20;28.60;;;;;;10361393;28;20210;-73
2022/05/13 09:48:09;;;;;;;3.23;1.20;;;36.50;28.00;;;;;;10363935;28;20217;-72
2022/05/13 09:53:22;;;;;;;4.50;1.13;;;36.10;27.00;;;;;;10361372;28;20226;-72
2022/05/13 09:58:51;;;;;;;5.33;1.53;;;36.10;27.30;;;;;;10342328;28;20877;-72
2022/05/13 10:04:12;;;;;;;4.47;1.33;;;36.30;26.90;;;;;;10346694;28;20736;-73
2022/05/13 10:14:53;;;;;;;5.23;1.63;;;34.90;27.90;;;;;;10360056;28;20324;-73
2022/05/13 10:20:06;;;;;;;2.90;1.17;;;35.10;28.10;;;;;;10364031;28;20217;-73
2022/05/13 10:25:24;;;;;;;4.77;1.03;;;35.40;26.90;;;;;;10335231;28;20277;-73
2022/05/13 10:30:54;;;;;;;2.40;1.13;;;35.30;27.30;;;;;;10346915;28;20229;-73
2022/05/13 10:36:02;;;;;;;5.53;1.33;;;35.10;26.90;;;;;;10367106;28;20642;-72
2022/05/13 10:41:21;;;;;;;8.03;1.37;;;35.40;27.20;;;;;;10335722;28;20230;-73
2022/05/13 10:46:32;;;;;;;9.60;1.20;;;36.30;27.00;;;;;;10339309;28;20226;-73
2022/05/13 10:51:44;;;;;;;4.00;1.30;;;35.10;26.60;;;;;;10344489;28;20735;-72
2022/05/13 10:57:06;;;;;;;12.30;1.70;;;33.70;28.30;;;;;;10350863;28;20276;-72
2022/05/13 11:02:43;;;;;;;6.37;1.20;;;34.30;28.00;;;;;;10353597;28;20313;-73
2022/05/13 11:08:04;;;;;;;6.27;1.30;;;35.10;27.10;;;;;;10363616;28;20296;-72
2022/05/13 11:13:41;;;;;;;3.93;1.30;;;35.90;27.00;;;;;;10355752;28;20214;-73
2022/05/13 11:19:03;;;;;;;1.83;1.10;;;36.70;26.30;;;;;;10329848;28;20217;-74
2022/05/13 11:29:53;;;;;;;2.43;1.07;;;37.30;25.50;;;;;;10364717;28;20214;-72
2022/05/13 11:35:17;;;;;;;4.60;1.30;;;37.40;24.80;;;;;;10341904;28;20600;-74
2022/05/13 11:40:29;;;;;;;4.03;1.13;;;37.20;25.00;;;;;;10354000;28;20240;-72
2022/05/13 11:45:55;;;;;;;5.67;1.80;;;34.00;26.80;;;;;;10352648;28;20631;-71
2022/05/13 11:51:06;;;;;;;4.50;1.30;;;31.10;30.80;;;;;;10348367;28;20209;-72
2022/05/13 11:56:36;;;;;;;4.47;1.40;;;29.00;33.30;;;;;;10349846;28;20218;-72
2022/05/13 12:01:39;;;;;;;5.40;1.37;;;27.60;34.90;;;;;;10353000;28;20226;-72
2022/05/13 12:06:51;;;;;;;13.60;2.03;;;26.90;35.50;;;;;;10358338;28;20690;-72
2022/05/13 12:11:52;;;;;;;4.03;1.10;;;26.40;36.40;;;;;;10360121;28;20216;-72
2022/05/13 12:17:19;;;;;;;6.57;1.37;;;26.10;37.40;;;;;;10362897;28;20231;-72
2022/05/13 12:22:30;;;;;;;2.97;1.10;;;25.90;38.10;;;;;;10355722;28;20708;-72
2022/05/13 12:27:44;;;;;;;3.67;1.20;;;25.80;38.90;;;;;;10339902;28;20218;-72
2022/05/13 12:32:49;;;;;;;4.03;1.27;;;25.60;38.70;;;;;;10357604;28;20228;-72
2022/05/13 12:37:49;;;;;;;27.97;2.23;;;25.40;39.50;;;;;;10364862;28;20255;-72
2022/05/13 12:42:50;;;;;;;5.63;1.17;;;25.00;38.50;;;;;;10362946;28;20790;-72
2022/05/13 12:48:04;;;;;;;2.50;1.20;;;24.80;40.10;;;;;;10366866;28;20308;-72
2022/05/13 12:53:30;;;;;;;6.47;1.27;;;24.90;39.40;;;;;;10363397;28;20217;-72
2022/05/13 12:58:31;;;;;;;4.23;1.27;;;24.90;40.30;;;;;;10347433;28;20719;-71
2022/05/13 13:03:38;;;;;;;2.43;1.17;;;25.00;39.60;;;;;;10344505;28;20219;-73
2022/05/13 13:08:41;;;;;;;4.17;1.17;;;24.90;41.00;;;;;;10351602;28;20308;-73
2022/05/13 13:14:06;;;;;;;8.53;1.60;;;24.80;40.30;;;;;;10357824;28;20284;-73
2022/05/13 13:19:16;;;;;;;3.07;1.13;;;24.70;40.30;;;;;;10350725;28;20229;-72
2022/05/13 13:24:25;;;;;;;3.10;1.20;;;24.80;40.60;;;;;;10336256;28;20224;-72
2022/05/13 13:29:29;;;;;;;2.40;1.00;;;24.80;40.20;;;;;;10368527;28;20221;-71
2022/05/13 13:34:37;;;;;;;5.23;1.10;;;24.70;40.20;;;;;;10363003;28;20228;-72
2022/05/13 13:39:37;;;;;;;6.63;1.47;;;24.60;39.90;;;;;;10371462;28;20285;-71
2022/05/13 13:44:39;;;;;;;3.90;1.53;;;24.70;40.10;;;;;;10359374;28;20254;-72
2022/05/13 13:49:47;;;;;;;4.13;1.23;;;24.70;40.00;;;;;;10345213;28;20702;-72
2022/05/13 13:54:58;;;;;;;5.70;1.43;;;24.90;40.50;;;;;;10362724;28;20303;-72
2022/05/13 14:00:08;;;;;;;2.53;1.00;;;25.00;40.00;;;;;;10366393;28;20704;-73
2022/05/13 14:05:11;;;;;;;4.93;0.80;;;25.00;39.40;;;;;;10353880;28;20218;-72
2022/05/13 14:10:16;;;;;;;6.00;1.40;;;25.00;39.40;;;;;;10358351;28;20218;-72
2022/05/13 14:15:18;;;;;;;3.60;1.47;;;25.00;39.60;;;;;;10363265;28;20191;-71
2022/05/13 14:20:34;;;;;;;5.87;1.07;;;25.10;39.20;;;;;;10367260;28;20217;-73
2022/05/13 14:25:44;;;;;;;6.87;1.63;;;24.90;39.90;;;;;;10366165;28;20222;-71
2022/05/13 14:30:50;;;;;;;4.30;0.90;;;24.80;40.50;;;;;;10360927;28;20224;-70
2022/05/13 14:35:53;;;;;;;4.50;1.03;;;24.80;39.90;;;;;;10360369;28;20219;-71
2022/05/13 14:40:59;;;;;;;3.27;1.07;;;24.90;39.60;;;;;;10362127;28;20255;-71
2022/05/13 14:46:13;;;;;;;5.50;2.27;;;24.80;39.70;;;;;;10344862;28;20228;-70
2022/05/13 14:51:21;;;;;;;3.07;1.07;;;24.70;39.60;;;;;;10354064;28;20275;-70
2022/05/13 14:56:23;;;;;;;4.93;1.67;;;24.80;39.80;;;;;;10356035;28;20229;-71
2022/05/13 15:01:27;;;;;;;4.27;1.47;;;24.90;39.60;;;;;;10362258;28;20279;-71
2022/05/13 15:06:30;;;;;;;1.57;0.90;;;24.80;40.40;;;;;;10338689;28;20762;-71
2022/05/13 15:11:37;;;;;;;5.87;1.50;;;24.80;40.00;;;;;;10357043;28;20222;-71
2022/05/13 15:16:39;;;;;;;4.97;1.00;;;24.70;39.70;;;;;;10358371;28;20219;-71
2022/05/13 15:21:40;;;;;;;10.43;1.37;;;24.70;40.20;;;;;;10365671;28;20576;-71
2022/05/13 15:26:40;;;;;;;4.70;1.53;;;24.70;39.90;;;;;;10348939;28;20214;-71
2022/05/13 15:31:41;;;;;;;4.70;0.97;;;24.60;40.20;;;;;;10341495;28;20270;-71
2022/05/13 15:36:42;;;;;;;3.73;1.57;;;24.50;40.40;;;;;;10356844;28;20249;-71
2022/05/13 15:41:43;;;;;;;3.60;0.80;;;24.40;40.90;;;;;;10354155;28;20304;-71
2022/05/13 15:46:44;;;;;;;2.17;0.80;;;24.30;40.80;;;;;;10365934;28;20225;-71
2022/05/13 15:57:08;;;;;;;6.20;1.30;;;24.20;41.20;;;;;;10351225;28;20316;-72
2022/05/13 16:02:09;;;;;;;5.83;1.10;;;24.00;41.10;;;;;;10355722;28;20244;-71
2022/05/13 16:07:10;;;;;;;2.73;0.90;;;24.10;41.50;;;;;;10354703;28;20889;-70
2022/05/13 16:12:22;;;;;;;5.67;1.10;;;24.10;40.70;;;;;;10361471;28;20225;-70
2022/05/13 16:17:23;;;;;;;3.57;1.10;;;24.00;40.90;;;;;;10357401;28;20263;-70
2022/05/13 16:22:24;;;;;;;2.73;1.00;;;24.00;40.90;;;;;;10340207;28;20250;-70
2022/05/13 16:27:30;;;;;;;4.37;1.47;;;23.80;40.70;;;;;;10354710;28;20238;-70
2022/05/13 16:32:30;;;;;;;4.17;1.00;;;23.70;41.00;;;;;;10355823;28;20231;-71
2022/05/13 16:37:43;;;;;;;2.30;0.90;;;23.60;40.90;;;;;;10364438;28;20589;-70
2022/05/13 16:42:44;;;;;;;7.77;1.53;;;23.60;41.60;;;;;;10351165;28;20240;-71
2022/05/13 16:47:45;;;;;;;1.67;0.77;;;23.50;41.80;;;;;;10350542;28;20226;-70
2022/05/13 16:52:46;;;;;;;4.47;1.20;;;23.40;42.20;;;;;;10355941;28;20234;-70
2022/05/13 16:57:47;;;;;;;5.03;1.47;;;23.30;42.00;;;;;;10354846;28;20696;-70
2022/05/13 17:02:54;;;;;;;4.60;1.10;;;23.20;42.80;;;;;;10355340;28;20248;-70
2022/05/13 17:07:55;;;;;;;3.83;1.10;;;23.10;42.70;;;;;;10350616;28;20256;-70
2022/05/13 17:18:15;;;;;;;4.37;1.10;;;22.90;43.90;;;;;;10351293;28;20238;-70
2022/05/13 17:23:15;;;;;;;5.27;1.13;;;22.90;44.40;;;;;;10352155;28;20231;-71
2022/05/13 17:28:16;;;;;;;4.83;1.20;;;22.80;44.40;;;;;;10352546;28;20234;-70
2022/05/13 17:33:17;;;;;;;2.97;0.90;;;22.60;44.60;;;;;;10366274;28;20228;-70
2022/05/13 17:38:18;;;;;;;4.73;1.00;;;22.50;44.90;;;;;;10361970;28;20242;-71
2022/05/13 17:43:20;;;;;;;4.53;1.27;;;22.30;44.90;;;;;;10361372;28;20785;-70
2022/05/13 17:48:21;;;;;;;1.80;1.10;;;22.20;45.60;;;;;;10364149;28;20956;-70
2022/05/13 17:53:25;;;;;;;4.20;1.30;;;22.10;46.20;;;;;;10365111;28;20308;-70
2022/05/13 17:58:26;;;;;;;3.77;0.90;;;22.00;46.80;;;;;;10340524;28;20658;-71
2022/05/13 18:03:26;;;;;;;4.13;1.20;;;21.90;47.20;;;;;;10361185;28;20213;-71
2022/05/13 18:08:27;;;;;;;4.43;1.17;;;21.70;47.50;;;;;;10360958;28;20240;-70
2022/05/13 18:13:28;;;;;;;3.00;1.00;;;21.60;48.00;;;;;;10353844;28;20235;-70
2022/05/13 18:18:31;;;;;;;2.67;1.10;;;21.50;48.20;;;;;;10355937;28;20226;-70
2022/05/13 18:23:33;;;;;;;3.97;1.10;;;21.30;48.90;;;;;;10358277;28;20263;-70
2022/05/13 18:28:34;;;;;;;1.77;1.00;;;21.10;49.40;;;;;;10339004;28;20229;-70
2022/05/13 18:33:35;;;;;;;3.03;1.30;;;21.00;49.90;;;;;;10364947;28;20224;-71
2022/05/13 18:38:35;;;;;;;3.67;1.40;;;20.80;50.30;;;;;;10356592;28;20283;-71
2022/05/13 18:48:57;;;;;;;5.73;1.70;;;20.40;51.70;;;;;;10355896;28;20256;-70
2022/05/13 18:53:58;;;;;;;6.40;1.03;;;20.10;52.90;;;;;;10362879;28;20220;-70
2022/05/13 18:58:59;;;;;;;3.23;1.10;;;19.90;54.20;;;;;;10364815;28;20226;-70
2022/05/13 19:04:00;;;;;;;4.37;1.50;;;19.60;55.30;;;;;;10366270;28;20243;-70
2022/05/13 19:09:02;;;;;;;6.33;1.60;;;19.40;56.30;;;;;;10350985;28;20910;-70
2022/05/13 19:14:03;;;;;;;6.00;2.00;;;19.20;56.60;;;;;;10350196;28;20642;-70
2022/05/13 19:19:07;;;;;;;5.83;1.90;;;19.00;57.20;;;;;;10360246;28;20323;-70
2022/05/13 19:24:11;;;;;;;4.53;2.20;;;18.90;58.20;;;;;;10337633;28;20221;-70
2022/05/13 19:29:12;;;;;;;6.37;2.40;;;18.70;59.00;;;;;;10356194;28;20291;-70
2022/05/13 19:34:13;;;;;;;3.97;1.97;;;18.50;59.50;;;;;;10363356;28;20235;-70
2022/05/13 19:39:14;;;;;;;4.57;2.00;;;18.40;60.20;;;;;;10357162;28;20232;-70
2022/05/13 19:44:14;;;;;;;4.67;1.73;;;18.40;61.20;;;;;;10363917;28;20216;-70
2022/05/13 19:49:15;;;;;;;6.73;1.97;;;18.20;61.60;;;;;;10364172;28;20224;-71
2022/05/13 19:54:16;;;;;;;4.67;2.57;;;18.10;62.20;;;;;;10367192;28;20684;-71
2022/05/13 19:59:16;;;;;;;3.43;1.73;;;18.00;62.90;;;;;;10358274;28;20259;-71
2022/05/13 20:04:17;;;;;;;4.03;1.60;;;17.90;63.80;;;;;;10360237;28;20217;-71
2022/05/13 20:14:38;;;;;;;3.93;1.40;;;17.70;64.30;;;;;;10368185;28;20227;-70
2022/05/13 20:25:00;;;;;;;4.87;1.60;;;17.60;62.80;;;;;;10365907;28;20699;-72
2022/05/13 20:30:01;;;;;;;5.27;2.10;;;17.50;62.80;;;;;;10357357;28;20224;-70
2022/05/13 20:35:02;;;;;;;3.07;1.77;;;17.50;63.80;;;;;;10339533;28;20274;-71
2022/05/13 20:40:03;;;;;;;3.60;1.70;;;17.40;64.30;;;;;;10365362;28;20332;-71
2022/05/13 20:45:05;;;;;;;4.27;1.43;;;17.30;64.60;;;;;;10363146;28;20220;-69
2022/05/13 20:50:06;;;;;;;7.43;2.27;;;17.30;64.90;;;;;;10341100;28;20200;-71
2022/05/13 20:55:08;;;;;;;2.80;1.63;;;17.20;65.90;;;;;;10358837;28;20317;-70
2022/05/13 21:00:11;;;;;;;8.77;2.00;;;17.10;64.70;;;;;;10356243;28;20256;-71
2022/05/13 21:05:16;;;;;;;4.67;2.27;;;17.10;65.80;;;;;;10359018;28;20193;-71
2022/05/13 21:10:20;;;;;;;5.17;2.10;;;17.00;67.10;;;;;;10364821;28;20234;-72
2022/05/13 21:15:21;;;;;;;3.57;2.30;;;17.00;67.70;;;;;;10372401;28;20201;-70
2022/05/13 21:20:22;;;;;;;6.00;2.53;;;16.80;68.80;;;;;;10366682;28;20220;-70
2022/05/13 21:25:23;;;;;;;6.47;2.70;;;16.70;70.00;;;;;;10365974;28;20258;-72
2022/05/13 21:30:24;;;;;;;6.57;3.20;;;16.60;70.80;;;;;;10347055;28;20635;-71
2022/05/13 21:40:45;;;;;;;3.77;2.60;;;16.40;71.80;;;;;;10363986;28;20237;-71
2022/05/13 21:45:45;;;;;;;4.53;2.80;;;16.40;72.20;;;;;;10357386;28;20221;-70
2022/05/13 21:50:46;;;;;;;5.67;2.70;;;16.30;72.10;;;;;;10365594;28;20213;-70
2022/05/13 21:55:46;;;;;;;7.13;3.20;;;16.20;72.20;;;;;;10365483;28;20228;-71
2022/05/13 22:00:50;;;;;;;4.67;2.80;;;16.20;73.60;;;;;;10347744;28;20255;-71
2022/05/13 22:05:51;;;;;;;4.20;2.67;;;16.00;73.90;;;;;;10360852;28;20299;-70
2022/05/13 22:10:52;;;;;;;5.17;2.63;;;16.00;74.50;;;;;;10366144;28;20277;-71
2022/05/13 22:15:53;;;;;;;5.73;2.67;;;16.00;75.00;;;;;;10356945;28;20231;-70
2022/05/13 22:20:53;;;;;;;5.10;1.77;;;15.90;75.60;;;;;;10329718;28;20241;-70
2022/05/13 22:25:54;;;;;;;4.07;2.10;;;15.90;75.20;;;;;;10360891;28;20232;-71
2022/05/13 22:30:55;;;;;;;5.37;2.30;;;15.70;75.60;;;;;;10359648;28;20313;-70
2022/05/13 22:35:57;;;;;;;2.83;1.40;;;15.70;75.50;;;;;;10360306;28;20230;-70
2022/05/13 22:40:58;;;;;;;5.63;1.83;;;15.70;74.80;;;;;;10367323;28;20260;-70
2022/05/13 22:46:02;;;;;;;3.87;1.90;;;15.60;75.30;;;;;;10346978;28;20270;-69
2022/05/13 22:51:03;;;;;;;3.23;1.70;;;15.50;75.90;;;;;;10356992;28;20229;-70
2022/05/13 22:56:06;;;;;;;3.00;1.33;;;15.50;76.10;;;;;;10368270;28;20281;-70
2022/05/13 23:01:07;;;;;;;4.20;1.73;;;15.50;76.10;;;;;;10357631;28;20255;-70
2022/05/13 23:11:28;;;;;;;4.67;1.60;;;15.30;77.40;;;;;;10348737;28;20684;-70
2022/05/13 23:16:30;;;;;;;4.20;1.50;;;15.30;78.20;;;;;;10364379;28;20270;-70
2022/05/13 23:21:33;;;;;;;2.73;1.57;;;15.20;78.80;;;;;;10360282;28;20248;-70
2022/05/13 23:26:34;;;;;;;4.60;1.47;;;15.10;79.60;;;;;;10361357;28;20225;-70
2022/05/13 23:31:35;;;;;;;5.07;1.30;;;15.10;79.50;;;;;;10359499;28;20235;-70
2022/05/13 23:36:37;;;;;;;2.37;1.23;;;15.10;80.00;;;;;;10349165;28;20307;-70
2022/05/13 23:41:38;;;;;;;3.73;1.40;;;15.00;80.40;;;;;;10341720;28;20692;-69
2022/05/13 23:46:39;;;;;;;3.83;1.67;;;14.90;80.50;;;;;;10358410;28;20213;-70
2022/05/13 23:51:39;;;;;;;3.13;1.87;;;14.90;81.30;;;;;;10348559;28;20224;-69
2022/05/13 23:56:40;;;;;;;7.37;1.83;;;14.80;81.80;;;;;;10364533;28;20229;-71
